KPOC/POC METAR and TAF weather

Enter ICAO airport designator
Station Type Date Time Source
KPOC METAR 2020/02/16 19:47 UTC NOAA

KPOC 161947Z 00000KT 10SM CLR 18/00 A3009


Station Type Date Time Source
KPOC Decoded METAR 2020/02/16 19:47 UTC NOAA

La Verne / Brackett, CA, United States (KPOC) 34-06N 117-47W
Feb 16, 2020 - 02:47 PM EST / 2020.02.16 1947 UTC
Wind: Calm:0
Visibility: 10 mile(s):0
Sky conditions: clear
Temperature: 64 F (18 C)
Dew Point: 32 F (0 C)
Relative Humidity: 29%
Pressure (altimeter): 30.09 in. Hg (1018 hPa)
ob: KPOC 161947Z 00000KT 10SM CLR 18/00 A3009
cycle: 20

Station Type Date Time Source
KPOC TAF UTC NOAA

Error!

Example: see airport list